createdAt,value
2024-04-10T00:05:00.623Z,99853.29
2024-04-10T00:10:04.779Z,99857.31
2024-04-10T00:15:07.998Z,99873.90
2024-04-10T00:20:10.956Z,99885.24
2024-04-10T00:25:14.304Z,99898.70
2024-04-10T00:30:17.300Z,99908.95
2024-04-10T00:35:21.191Z,99924.28
2024-04-10T00:40:24.125Z,99931.44
2024-04-10T00:45:27.260Z,99931.91
2024-04-10T00:50:30.733Z,99941.80
2024-04-10T00:55:34.674Z,99961.95
2024-04-10T01:00:38.610Z,99967.85
2024-04-10T01:05:41.701Z,99986.52
2024-04-10T01:10:44.925Z,100005.45
2024-04-10T01:15:48.281Z,100023.51
2024-04-10T01:20:52.246Z,100035.87
2024-04-10T01:25:55.400Z,100050.34
2024-04-10T01:30:58.575Z,100060.79
2024-04-10T01:36:01.708Z,100062.63
2024-04-10T01:41:04.825Z,100070.16
2024-04-10T01:46:08.197Z,100082.61
2024-04-10T01:51:11.395Z,100089.82
2024-04-10T01:56:14.589Z,100095.87
2024-04-10T02:01:18.065Z,100108.33
2024-04-10T02:06:21.221Z,100121.65
2024-04-10T02:11:27.668Z,100120.44
2024-04-10T02:16:31.291Z,100122.92
2024-04-10T02:21:34.435Z,100124.30
2024-04-10T02:26:37.568Z,100137.98
2024-04-10T02:31:41.051Z,100143.44
2024-04-10T02:36:44.181Z,100145.96
2024-04-10T02:41:47.171Z,100158.48
2024-04-10T02:46:50.901Z,100161.27
2024-04-10T02:51:54.293Z,100162.92
2024-04-10T02:56:57.201Z,100172.69
2024-04-10T03:02:00.555Z,100184.48
2024-04-10T03:07:04.738Z,100192.96
2024-04-10T03:12:09.020Z,100206.29
2024-04-10T03:17:13.488Z,100217.89
2024-04-10T03:22:17.431Z,100226.58
2024-04-10T03:27:20.754Z,100242.34
2024-04-10T03:32:24.043Z,100253.65
2024-04-10T03:37:27.774Z,100264.73
2024-04-10T03:42:30.777Z,100272.84
2024-04-10T03:47:33.926Z,100276.86
2024-04-10T03:52:36.880Z,100286.98
2024-04-10T03:57:39.741Z,100304.46
2024-04-10T04:02:43.624Z,100311.59
2024-04-10T04:07:46.612Z,100319.98
2024-04-10T04:12:49.554Z,100332.49
2024-04-10T04:17:52.870Z,100341.44
2024-04-10T04:22:55.938Z,100351.13
2024-04-10T04:27:58.831Z,100362.14
2024-04-10T04:33:02.296Z,100370.73
2024-04-10T04:38:05.775Z,100385.48
2024-04-10T04:43:11.929Z,100404.60
2024-04-10T04:48:15.125Z,100416.70
2024-04-10T04:53:18.380Z,100426.70
2024-04-10T04:58:24.435Z,100434.95
2024-04-10T05:03:47.956Z,100445.15
2024-04-10T05:08:51.228Z,100457.16
2024-04-10T05:13:54.562Z,100474.47
2024-04-10T05:18:59.480Z,100485.48
2024-04-10T05:24:02.385Z,100494.94
2024-04-10T05:29:05.519Z,100501.17
2024-04-10T05:34:08.675Z,100503.09
2024-04-10T05:39:20.340Z,100512.75
2024-04-10T05:44:24.875Z,100518.96
2024-04-10T05:49:29.787Z,100534.39
2024-04-10T05:54:32.694Z,100547.02
2024-04-10T05:59:35.859Z,100557.46
2024-04-10T06:04:40.302Z,100562.17
2024-04-10T06:09:43.545Z,100567.42
2024-04-10T06:14:46.835Z,100573.51
2024-04-10T06:19:50.441Z,100582.21
2024-04-10T06:24:53.691Z,100591.58
2024-04-10T06:29:56.785Z,100605.09
2024-04-10T06:34:59.913Z,100615.09
2024-04-10T06:40:03.233Z,100618.50
2024-04-10T06:45:07.030Z,100631.83
2024-04-10T06:50:14.204Z,100652.64
2024-04-10T06:55:17.448Z,100667.23
2024-04-10T07:00:23.651Z,100676.14
2024-04-10T07:05:26.754Z,100681.73
2024-04-10T07:10:30.140Z,100684.86
2024-04-10T07:15:33.452Z,100687.28
2024-04-10T07:20:36.677Z,100698.26
2024-04-10T07:25:40.278Z,100703.23
2024-04-10T07:30:51.414Z,100710.22
2024-04-10T07:35:54.477Z,100722.52
2024-04-10T07:40:57.945Z,100733.48
2024-04-10T07:46:08.277Z,100738.21
2024-04-10T07:51:14.551Z,100752.49
2024-04-10T07:56:18.931Z,100770.48
2024-04-10T08:01:23.955Z,100784.34
2024-04-10T08:06:27.140Z,100783.18
2024-04-10T08:11:30.333Z,100788.26
2024-04-10T08:16:34.067Z,100794.80
2024-04-10T08:21:38.925Z,100795.58
2024-04-10T08:26:42.277Z,100802.72
2024-04-10T08:31:46.406Z,100808.89
2024-04-10T08:36:51.538Z,100820.69
2024-04-10T08:41:57.064Z,100832.69
2024-04-10T08:47:02.240Z,100829.73
2024-04-10T08:52:05.464Z,100831.74
2024-04-10T08:57:08.634Z,100831.81
2024-04-10T09:02:13.920Z,100835.98
2024-04-10T09:07:20.170Z,100845.59
2024-04-10T09:12:24.505Z,100846.17
2024-04-10T09:17:27.526Z,100843.71
2024-04-10T09:22:30.722Z,100857.52
2024-04-10T09:27:33.621Z,100869.70
2024-04-10T09:32:37.928Z,100874.67
2024-04-10T09:37:45.087Z,100885.98
2024-04-10T09:42:52.573Z,100896.81
2024-04-10T09:47:57.881Z,100905.66
2024-04-10T09:53:03.282Z,100914.02
2024-04-10T09:58:11.778Z,100914.20
2024-04-10T10:03:27.525Z,100911.84
2024-04-10T10:08:31.561Z,100905.23
2024-04-10T10:13:42.953Z,100907.63
2024-04-10T10:18:54.348Z,100917.67
2024-04-10T10:24:08.390Z,100923.07
2024-04-10T10:29:13.992Z,100919.08
2024-04-10T10:34:27.468Z,100922.25
2024-04-10T10:39:31.849Z,100913.59
2024-04-10T10:44:35.107Z,100913.13
2024-04-10T10:49:38.351Z,100922.49
2024-04-10T10:54:41.580Z,100929.38
2024-04-10T10:59:44.729Z,100933.75
2024-04-10T11:04:48.036Z,100937.70
2024-04-10T11:09:51.611Z,100941.16
2024-04-10T11:14:54.668Z,100944.30
2024-04-10T11:19:57.730Z,100955.16
2024-04-10T11:25:01.949Z,100962.29
2024-04-10T11:30:06.334Z,100964.80
2024-04-10T11:35:14.856Z,100975.17
2024-04-10T11:40:18.022Z,100988.73
2024-04-10T11:45:21.035Z,100996.88
2024-04-10T11:50:24.713Z,101003.59
2024-04-10T11:55:29.737Z,101009.62
2024-04-10T12:00:32.915Z,101009.11
2024-04-10T12:05:39.046Z,101003.80
2024-04-10T12:10:42.093Z,101007.70
2024-04-10T12:15:45.049Z,101012.86
2024-04-10T12:20:48.620Z,101014.53
2024-04-10T12:25:51.814Z,101020.27
2024-04-10T12:30:55.324Z,101017.48
2024-04-10T12:36:19.836Z,101023.09
2024-04-10T12:41:23.002Z,101027.52
2024-04-10T12:46:29.095Z,101030.75
2024-04-10T12:51:32.324Z,101031.48
2024-04-10T12:56:36.704Z,101033.15
2024-04-10T13:01:39.903Z,101032.81
2024-04-10T13:06:43.380Z,101035.53
2024-04-10T13:11:46.694Z,101038.62
2024-04-10T13:16:49.766Z,101047.40
2024-04-10T13:21:52.903Z,101048.19
2024-04-10T13:26:56.211Z,101053.72
2024-04-10T13:31:59.629Z,101055.23
2024-04-10T13:37:03.042Z,101055.92
2024-04-10T13:42:07.549Z,101057.95
2024-04-10T13:47:10.892Z,101061.83
2024-04-10T13:52:14.000Z,101071.02
2024-04-10T13:57:19.187Z,101071.61
2024-04-10T14:02:23.072Z,101075.00
2024-04-10T14:07:26.087Z,101077.54
2024-04-10T14:12:29.481Z,101076.37
2024-04-10T14:17:33.272Z,101080.75
2024-04-10T14:22:36.376Z,101085.27
2024-04-10T14:27:39.952Z,101085.95
2024-04-10T14:32:43.836Z,101087.20
2024-04-10T14:37:47.281Z,101089.11
2024-04-10T14:42:50.593Z,101095.87
2024-04-10T14:47:53.689Z,101102.17
2024-04-10T14:52:56.802Z,101108.17
2024-04-10T14:58:01.340Z,101106.31
2024-04-10T15:03:05.230Z,101107.89
2024-04-10T15:08:08.683Z,101117.42
2024-04-10T15:13:12.107Z,101122.92
2024-04-10T15:18:15.313Z,101120.38
2024-04-10T15:23:18.518Z,101123.14
2024-04-10T15:28:22.791Z,101130.89
2024-04-10T15:33:27.679Z,101134.34
2024-04-10T15:38:31.978Z,101141.23
2024-04-10T15:43:36.445Z,101150.77
2024-04-10T15:48:39.602Z,101159.98
2024-04-10T15:53:43.535Z,101170.95
2024-04-10T15:58:47.329Z,101174.90
2024-04-10T16:03:50.982Z,101181.59
2024-04-10T16:08:57.934Z,101186.88
2024-04-10T16:14:03.709Z,101192.00
2024-04-10T16:19:07.416Z,101200.33
2024-04-10T16:24:11.685Z,101207.25
2024-04-10T16:29:15.382Z,101212.30
2024-04-10T16:34:21.053Z,101227.00
2024-04-10T16:39:27.328Z,101247.67
2024-04-10T16:44:31.186Z,101264.92
2024-04-10T16:49:35.059Z,101275.98
2024-04-10T16:54:38.776Z,101289.52
2024-04-10T16:59:49.281Z,101298.27
2024-04-10T17:04:53.066Z,101300.98
2024-04-10T17:09:57.209Z,101310.50
2024-04-10T17:15:00.960Z,101317.38
2024-04-10T17:20:23.515Z,101319.89
2024-04-10T17:25:27.724Z,101329.41
2024-04-10T17:30:30.842Z,101330.77
2024-04-10T17:35:34.371Z,101341.91
2024-04-10T17:40:38.511Z,101355.17
2024-04-10T17:45:43.952Z,101368.52
2024-04-10T17:50:52.330Z,101385.67
2024-04-10T17:55:55.787Z,101398.58
2024-04-10T18:01:04.974Z,101410.96
2024-04-10T18:06:12.969Z,101423.60
2024-04-10T18:11:16.666Z,101434.19
2024-04-10T18:16:23.190Z,101446.71
2024-04-10T18:21:27.122Z,101455.40
2024-04-10T18:26:30.714Z,101459.80
2024-04-10T18:31:34.261Z,101467.92
2024-04-10T18:36:37.685Z,101478.16
2024-04-10T18:41:41.248Z,101484.95
2024-04-10T18:46:45.248Z,101494.98
2024-04-10T18:51:50.238Z,101507.56
2024-04-10T18:56:54.133Z,101517.09
2024-04-10T19:01:58.472Z,101526.46
2024-04-10T19:07:02.304Z,101534.48
2024-04-10T19:12:07.961Z,101538.17
2024-04-10T19:17:11.464Z,101547.75
2024-04-10T19:22:16.982Z,101550.58
2024-04-10T19:27:20.874Z,101558.84
2024-04-10T19:32:24.331Z,101560.05
2024-04-10T19:37:27.806Z,101564.73
2024-04-10T19:42:31.327Z,101577.02
2024-04-10T19:47:36.627Z,101586.30
2024-04-10T19:52:43.199Z,101590.45
2024-04-10T19:57:49.890Z,101597.24
2024-04-10T20:02:53.267Z,101606.59
2024-04-10T20:07:56.688Z,101617.30
2024-04-10T20:13:00.835Z,101623.45
2024-04-10T20:18:11.893Z,101633.88
2024-04-10T20:23:16.094Z,101632.30
2024-04-10T20:28:20.193Z,101633.30
2024-04-10T20:33:25.431Z,101642.02
2024-04-10T20:38:35.065Z,101642.61
2024-04-10T20:43:41.992Z,101644.27
2024-04-10T20:48:51.302Z,101649.59
2024-04-10T20:53:54.877Z,101653.85
2024-04-10T20:58:58.456Z,101653.11
2024-04-10T21:04:01.935Z,101656.76
2024-04-10T21:09:23.954Z,101668.58
2024-04-10T21:14:46.347Z,101672.84
2024-04-10T21:20:08.939Z,101671.94
2024-04-10T21:25:31.712Z,101670.92
2024-04-10T21:30:57.555Z,101676.72
2024-04-10T21:36:19.909Z,101674.07
2024-04-10T21:41:42.283Z,101675.37
2024-04-10T21:47:04.211Z,101681.61
2024-04-10T21:52:26.410Z,101690.23
2024-04-10T21:57:48.336Z,101693.26
2024-04-10T22:03:10.262Z,101690.40
2024-04-10T22:08:32.224Z,101697.94
2024-04-10T22:13:35.214Z,101707.05
2024-04-10T22:18:57.669Z,101708.17
2024-04-10T22:24:03.860Z,101707.89
2024-04-10T22:29:07.060Z,101700.45
2024-04-10T22:34:10.111Z,101713.00
2024-04-10T22:39:13.226Z,101719.03
2024-04-10T22:44:18.048Z,101722.52
2024-04-10T22:49:21.944Z,101724.41
2024-04-10T22:54:24.936Z,101720.15
2024-04-10T22:59:28.373Z,101716.80
2024-04-10T23:04:31.651Z,101717.11
2024-04-10T23:09:34.907Z,101723.56
2024-04-10T23:14:38.118Z,101726.69
2024-04-10T23:19:41.356Z,101730.21
2024-04-10T23:24:45.623Z,101729.20
2024-04-10T23:29:53.309Z,101722.67
2024-04-10T23:34:56.453Z,101727.72
2024-04-10T23:39:59.659Z,101733.08
2024-04-10T23:45:03.004Z,101738.20
2024-04-10T23:50:08.644Z,101736.47
2024-04-10T23:55:11.740Z,101741.66
